createdAt,value
2023-04-14T00:02:08.655Z,21.00
2023-04-14T00:04:39.710Z,22.42
2023-04-14T00:07:08.147Z,15.88
2023-04-14T00:09:36.607Z,16.42
2023-04-14T00:12:07.095Z,16.88
2023-04-14T00:14:35.960Z,23.08
2023-04-14T00:17:04.366Z,17.60
2023-04-14T00:19:32.778Z,19.17
2023-04-14T00:22:03.451Z,18.48
2023-04-14T00:24:31.920Z,13.57
2023-04-14T00:27:01.212Z,15.30
2023-04-14T00:29:31.018Z,12.38
2023-04-14T00:31:59.406Z,13.52
2023-04-14T00:34:27.821Z,14.45
2023-04-14T00:36:56.215Z,14.57
2023-04-14T00:39:26.841Z,13.40
2023-04-14T00:41:56.751Z,17.40
2023-04-14T00:44:25.451Z,11.43
2023-04-14T00:46:55.875Z,16.85
2023-04-14T00:49:24.586Z,14.70
2023-04-14T00:51:53.336Z,15.13
2023-04-14T00:54:21.750Z,17.40
2023-04-14T00:56:51.338Z,13.73
2023-04-14T00:59:19.815Z,15.70
2023-04-14T01:01:49.725Z,16.00
2023-04-14T01:04:22.919Z,18.05
2023-04-14T01:06:51.390Z,13.43
2023-04-14T01:09:19.773Z,13.40
2023-04-14T01:11:55.091Z,12.10
2023-04-14T01:14:32.475Z,12.38
2023-04-14T01:17:03.330Z,11.05
2023-04-14T01:19:44.331Z,10.52
2023-04-14T01:22:14.953Z,14.18
2023-04-14T01:24:52.943Z,11.95
2023-04-14T01:27:31.270Z,10.85
2023-04-14T01:30:04.923Z,11.23
2023-04-14T01:32:41.177Z,15.18
2023-04-14T01:35:11.532Z,13.15
2023-04-14T01:37:42.857Z,11.90
2023-04-14T01:40:13.622Z,12.93
2023-04-14T01:42:46.439Z,9.23
2023-04-14T01:45:25.443Z,13.05
2023-04-14T01:47:56.920Z,11.73
2023-04-14T01:50:27.073Z,13.50
2023-04-14T01:52:55.742Z,12.75
2023-04-14T01:55:25.514Z,13.85
2023-04-14T01:57:55.082Z,11.27
2023-04-14T02:00:24.283Z,12.75
2023-04-14T02:02:54.437Z,15.15
2023-04-14T02:05:24.941Z,10.48
2023-04-14T02:07:54.658Z,15.07
2023-04-14T02:10:23.864Z,13.68
2023-04-14T02:12:53.862Z,12.55
2023-04-14T02:15:24.056Z,10.25
2023-04-14T02:17:52.992Z,13.35
2023-04-14T02:20:22.575Z,10.50
2023-04-14T02:22:52.533Z,12.52
2023-04-14T02:25:22.575Z,11.45
2023-04-14T02:27:54.469Z,12.65
2023-04-14T02:30:24.471Z,10.82
2023-04-14T02:32:55.456Z,15.18
2023-04-14T02:35:27.023Z,8.98
2023-04-14T02:37:58.917Z,14.07
2023-04-14T02:40:29.200Z,13.23
2023-04-14T02:42:59.471Z,11.88
2023-04-14T02:45:29.352Z,11.20
2023-04-14T02:48:00.019Z,11.07
2023-04-14T02:50:30.442Z,16.30
2023-04-14T02:53:07.871Z,13.77
2023-04-14T02:55:38.923Z,9.83
2023-04-14T02:58:07.401Z,10.60
2023-04-14T03:00:40.105Z,11.18
2023-04-14T03:03:09.657Z,10.40
2023-04-14T03:05:40.760Z,11.10
2023-04-14T03:08:13.255Z,12.63
2023-04-14T03:10:46.687Z,9.45
2023-04-14T03:15:46.575Z,11.98
2023-04-14T03:18:16.176Z,15.32
2023-04-14T03:20:45.821Z,17.45
2023-04-14T03:23:18.901Z,11.10
2023-04-14T03:25:53.819Z,13.93
2023-04-14T03:28:29.133Z,15.70
2023-04-14T03:31:01.203Z,14.23
2023-04-14T03:33:35.431Z,13.25
2023-04-14T03:36:04.876Z,13.02
2023-04-14T03:38:36.359Z,11.32
2023-04-14T03:41:09.545Z,12.40
2023-04-14T03:43:38.200Z,15.00
2023-04-14T03:46:11.046Z,13.00
2023-04-14T03:48:42.866Z,11.18
2023-04-14T03:51:15.929Z,11.75
2023-04-14T03:53:47.967Z,13.32
2023-04-14T03:56:19.416Z,10.23
2023-04-14T03:58:50.564Z,11.45
2023-04-14T04:01:20.409Z,15.65
2023-04-14T04:03:49.846Z,16.65
2023-04-14T04:06:19.096Z,13.10
2023-04-14T04:08:51.242Z,11.13
2023-04-14T04:11:20.766Z,11.32
2023-04-14T04:13:51.386Z,12.90
2023-04-14T04:16:22.301Z,12.93
2023-04-14T04:18:51.973Z,8.23
2023-04-14T04:21:28.402Z,12.38
2023-04-14T04:23:59.013Z,10.38
2023-04-14T04:26:27.489Z,14.00
2023-04-14T04:28:57.953Z,13.32
2023-04-14T04:31:29.232Z,10.18
2023-04-14T04:33:58.517Z,11.18
2023-04-14T04:36:31.708Z,13.95
2023-04-14T04:39:01.724Z,12.65
2023-04-14T04:41:35.547Z,9.13
2023-04-14T04:44:04.968Z,11.32
2023-04-14T04:46:48.279Z,9.48
2023-04-14T04:49:17.857Z,8.30
2023-04-14T04:51:47.527Z,6.63
2023-04-14T04:54:21.237Z,9.38
2023-04-14T04:56:49.597Z,11.00
2023-04-14T04:59:17.935Z,9.43
2023-04-14T05:01:46.549Z,12.23
2023-04-14T05:04:15.640Z,13.38
2023-04-14T05:06:44.122Z,10.52
2023-04-14T05:09:12.505Z,9.90
2023-04-14T05:11:44.413Z,12.48
2023-04-14T05:14:14.861Z,13.50
2023-04-14T05:16:43.306Z,10.15
2023-04-14T05:19:11.921Z,8.57
2023-04-14T05:21:40.516Z,8.63
2023-04-14T05:24:11.364Z,12.77
2023-04-14T05:29:12.610Z,14.23
2023-04-14T05:31:41.253Z,15.55
2023-04-14T05:34:09.760Z,9.95
2023-04-14T05:36:38.137Z,10.60
2023-04-14T05:39:06.642Z,8.00
2023-04-14T05:41:37.412Z,11.45
2023-04-14T05:44:05.964Z,12.32
2023-04-14T05:46:35.915Z,13.50
2023-04-14T05:49:04.906Z,12.55
2023-04-14T05:51:33.436Z,15.18
2023-04-14T05:54:02.037Z,9.98
2023-04-14T05:56:30.792Z,16.58
2023-04-14T05:58:59.210Z,20.95
2023-04-14T06:01:27.739Z,11.48
2023-04-14T06:03:58.024Z,11.43
2023-04-14T06:06:28.114Z,15.15
2023-04-14T06:08:56.652Z,15.43
2023-04-14T06:11:25.062Z,11.65
2023-04-14T06:13:53.486Z,14.25
2023-04-14T06:16:22.019Z,18.63
2023-04-14T06:18:50.527Z,12.75
2023-04-14T06:21:22.716Z,13.55
2023-04-14T06:23:51.274Z,13.38
2023-04-14T06:26:20.553Z,12.52
2023-04-14T06:28:48.961Z,11.35
2023-04-14T06:31:17.505Z,13.50
2023-04-14T06:33:46.006Z,13.95
2023-04-14T06:36:16.944Z,13.13
2023-04-14T06:38:46.854Z,14.00
2023-04-14T06:41:15.458Z,17.38
2023-04-14T06:43:43.940Z,16.52
2023-04-14T06:46:12.671Z,13.95
2023-04-14T06:48:41.183Z,18.75
2023-04-14T06:51:12.310Z,15.82
2023-04-14T06:53:40.991Z,17.90
2023-04-14T06:56:11.135Z,14.75
2023-04-14T06:58:40.230Z,15.43
2023-04-14T07:01:11.860Z,15.75
2023-04-14T07:03:40.495Z,19.20
2023-04-14T07:06:11.553Z,21.27
2023-04-14T07:08:41.267Z,51.28
2023-04-14T07:11:11.839Z,24.52
2023-04-14T07:13:40.730Z,20.08
2023-04-14T07:16:10.206Z,25.55
2023-04-14T07:18:38.689Z,28.52
2023-04-14T07:21:07.151Z,22.17
2023-04-14T07:23:35.668Z,23.73
2023-04-14T07:26:04.075Z,20.65
2023-04-14T07:28:34.057Z,29.98
2023-04-14T07:31:09.341Z,92.68
2023-04-14T07:33:37.912Z,25.48
2023-04-14T07:36:07.241Z,40.88
2023-04-14T07:38:36.380Z,25.48
2023-04-14T07:41:06.386Z,37.22
2023-04-14T07:43:36.797Z,28.30
2023-04-14T07:46:05.940Z,20.25
2023-04-14T07:48:37.143Z,22.98
2023-04-14T07:51:06.063Z,17.27
2023-04-14T07:53:35.083Z,20.02
2023-04-14T07:56:03.724Z,23.00
2023-04-14T07:58:32.122Z,25.30
2023-04-14T08:01:02.373Z,25.25
2023-04-14T08:03:31.023Z,24.52
2023-04-14T08:05:59.715Z,22.67
2023-04-14T08:08:28.293Z,19.88
2023-04-14T08:10:56.857Z,26.50
2023-04-14T08:13:27.380Z,20.90
2023-04-14T08:15:56.032Z,21.92
2023-04-14T08:18:25.881Z,31.98
2023-04-14T08:20:54.248Z,22.80
2023-04-14T08:23:23.029Z,21.33
2023-04-14T08:25:51.510Z,23.38
2023-04-14T08:28:19.923Z,22.00
2023-04-14T08:30:49.365Z,21.08
2023-04-14T08:33:19.120Z,24.80
2023-04-14T08:35:56.363Z,22.55
2023-04-14T08:38:31.011Z,21.95
2023-04-14T08:41:02.725Z,23.42
2023-04-14T08:43:31.427Z,23.63
2023-04-14T08:45:59.991Z,18.77
2023-04-14T08:48:31.784Z,23.48
2023-04-14T08:51:06.276Z,20.25
2023-04-14T08:53:35.318Z,18.67
2023-04-14T08:56:05.289Z,20.55
2023-04-14T08:58:33.772Z,18.10
2023-04-14T09:01:04.430Z,16.73
2023-04-14T09:03:33.270Z,19.15
2023-04-14T09:06:03.443Z,21.58
2023-04-14T09:08:34.920Z,21.43
2023-04-14T09:11:03.503Z,20.27
2023-04-14T09:13:34.586Z,23.98
2023-04-14T09:16:05.115Z,20.73
2023-04-14T09:18:36.543Z,25.52
2023-04-14T09:21:31.356Z,29.38
2023-04-14T09:23:55.664Z,27.17
2023-04-14T09:26:28.206Z,25.10
2023-04-14T09:28:56.634Z,24.42
2023-04-14T09:31:25.638Z,22.95
2023-04-14T09:33:55.066Z,26.15
2023-04-14T09:36:25.881Z,25.67
2023-04-14T09:38:54.311Z,24.95
2023-04-14T09:41:23.089Z,26.52
2023-04-14T09:43:52.740Z,26.40
2023-04-14T09:46:21.645Z,32.42
2023-04-14T09:48:54.169Z,26.85
2023-04-14T09:51:29.499Z,30.90
2023-04-14T09:54:03.458Z,29.88
2023-04-14T09:56:32.415Z,33.13
2023-04-14T09:59:02.459Z,37.80
2023-04-14T10:01:33.763Z,34.40
2023-04-14T10:04:03.255Z,34.47
2023-04-14T10:06:33.060Z,33.45
2023-04-14T10:09:01.984Z,36.42
2023-04-14T10:11:32.273Z,36.22
2023-04-14T10:14:04.011Z,36.67
2023-04-14T10:16:32.863Z,40.88
2023-04-14T10:19:02.827Z,38.58
2023-04-14T10:24:01.862Z,39.67
2023-04-14T10:26:30.746Z,40.05
2023-04-14T10:28:59.651Z,36.95
2023-04-14T10:31:29.661Z,37.38
2023-04-14T10:33:58.386Z,35.92
2023-04-14T10:36:27.787Z,31.48
2023-04-14T10:39:02.493Z,35.78
2023-04-14T10:41:47.465Z,31.27
2023-04-14T10:44:25.434Z,34.63
2023-04-14T10:46:56.328Z,35.90
2023-04-14T10:49:31.138Z,33.20
2023-04-14T10:52:00.457Z,36.05
2023-04-14T10:54:30.191Z,35.53
2023-04-14T10:57:12.423Z,39.05
2023-04-14T10:59:43.870Z,48.67
2023-04-14T11:02:25.584Z,35.75
2023-04-14T11:05:00.946Z,34.45
2023-04-14T11:07:31.260Z,33.92
2023-04-14T11:10:05.162Z,30.38
2023-04-14T11:12:33.679Z,40.05
2023-04-14T11:15:04.703Z,41.72
2023-04-14T11:17:34.153Z,39.78
2023-04-14T11:20:02.824Z,35.85
2023-04-14T11:22:41.465Z,31.17
2023-04-14T11:25:12.751Z,38.08
2023-04-14T11:27:41.717Z,35.95
2023-04-14T11:30:12.268Z,46.95
2023-04-14T11:32:47.798Z,39.08
2023-04-14T11:35:16.847Z,38.78
2023-04-14T11:37:45.945Z,31.88
2023-04-14T11:40:17.307Z,47.03
2023-04-14T11:42:46.807Z,38.33
2023-04-14T11:45:16.591Z,48.60
2023-04-14T11:48:01.114Z,63.80
2023-04-14T11:50:31.461Z,37.47
2023-04-14T11:53:03.110Z,35.92
2023-04-14T11:55:32.873Z,33.85
2023-04-14T11:58:01.339Z,35.15
2023-04-14T12:00:30.032Z,33.58
2023-04-14T12:02:58.973Z,29.83
2023-04-14T12:05:31.208Z,31.88
2023-04-14T12:08:00.911Z,28.15
2023-04-14T12:10:29.735Z,30.63
2023-04-14T12:13:03.356Z,29.75
2023-04-14T12:15:32.502Z,29.15
2023-04-14T12:18:01.187Z,31.95
2023-04-14T12:20:30.411Z,31.88
2023-04-14T12:23:03.066Z,32.65
2023-04-14T12:25:33.932Z,32.90
2023-04-14T12:28:06.411Z,32.53
2023-04-14T12:30:35.833Z,31.40
2023-04-14T12:33:08.365Z,33.90
2023-04-14T12:35:37.316Z,29.98
2023-04-14T12:38:12.476Z,33.00
2023-04-14T12:40:42.489Z,28.33
2023-04-14T12:43:12.325Z,31.25
2023-04-14T12:45:44.930Z,32.58
2023-04-14T12:48:14.049Z,31.60
2023-04-14T12:50:42.509Z,30.25
2023-04-14T12:53:25.989Z,26.85
2023-04-14T12:56:09.497Z,29.83
2023-04-14T12:58:39.805Z,30.83
2023-04-14T13:01:08.362Z,34.70
2023-04-14T13:03:44.878Z,29.10
2023-04-14T13:06:17.838Z,29.90
2023-04-14T13:08:46.978Z,29.90
2023-04-14T13:11:15.441Z,30.42
2023-04-14T13:13:45.753Z,27.30
2023-04-14T13:16:16.932Z,30.95
2023-04-14T13:18:47.071Z,31.58
2023-04-14T13:21:15.714Z,32.90
2023-04-14T13:23:44.286Z,30.92
2023-04-14T13:26:13.065Z,31.45
2023-04-14T13:28:41.794Z,36.72
2023-04-14T13:31:13.150Z,29.67
2023-04-14T13:33:41.673Z,26.75
2023-04-14T13:36:10.639Z,28.45
2023-04-14T13:38:39.090Z,30.27
2023-04-14T13:41:07.536Z,26.52
2023-04-14T13:43:36.250Z,32.55
2023-04-14T13:46:04.838Z,28.52
2023-04-14T13:48:37.357Z,28.17
2023-04-14T13:51:05.859Z,29.38
2023-04-14T13:53:34.263Z,29.80
2023-04-14T13:56:03.109Z,32.30
2023-04-14T13:58:31.586Z,34.63
2023-04-14T14:01:00.112Z,31.92
2023-04-14T14:03:30.662Z,29.52
2023-04-14T14:06:02.105Z,33.33
2023-04-14T14:08:30.558Z,32.00
2023-04-14T14:10:58.947Z,29.83
2023-04-14T14:13:27.779Z,33.35
2023-04-14T14:15:56.387Z,35.15
2023-04-14T14:18:25.036Z,32.08
2023-04-14T14:20:53.460Z,26.88
2023-04-14T14:23:23.372Z,40.80
2023-04-14T14:25:53.839Z,32.38
2023-04-14T14:28:23.179Z,31.25
2023-04-14T14:30:51.961Z,24.67
2023-04-14T14:33:20.345Z,21.88
2023-04-14T14:35:48.766Z,21.38
2023-04-14T14:38:17.209Z,22.73
2023-04-14T14:40:47.126Z,21.13
2023-04-14T14:43:15.724Z,22.23
2023-04-14T14:45:44.161Z,22.35
2023-04-14T14:48:13.434Z,28.00
2023-04-14T14:50:41.864Z,27.05
2023-04-14T14:53:10.202Z,29.73
2023-04-14T14:55:38.600Z,23.15
2023-04-14T14:58:09.538Z,20.80
2023-04-14T15:00:37.902Z,20.00
2023-04-14T15:03:06.484Z,21.98
2023-04-14T15:05:35.367Z,20.52
2023-04-14T15:08:04.318Z,28.63
2023-04-14T15:10:35.197Z,19.98
2023-04-14T15:13:03.669Z,24.88
2023-04-14T15:15:37.740Z,23.83
2023-04-14T15:18:07.296Z,21.00
2023-04-14T15:20:35.969Z,20.20
2023-04-14T15:23:04.372Z,20.45
2023-04-14T15:25:32.746Z,23.13
2023-04-14T15:28:01.313Z,26.05
2023-04-14T15:30:29.659Z,22.88
2023-04-14T15:32:59.547Z,25.42
2023-04-14T15:35:28.045Z,18.98
2023-04-14T15:37:56.963Z,21.77
2023-04-14T15:40:25.976Z,23.92
2023-04-14T15:42:54.841Z,26.27
2023-04-14T15:45:23.282Z,23.02
2023-04-14T15:47:52.187Z,26.30
2023-04-14T15:50:21.919Z,24.00
2023-04-14T15:52:52.790Z,23.90
2023-04-14T15:55:21.355Z,25.92
2023-04-14T15:57:50.817Z,24.70
2023-04-14T16:00:20.041Z,22.95
2023-04-14T16:02:48.638Z,24.23
2023-04-14T16:05:17.214Z,32.25
2023-04-14T16:07:47.099Z,32.63
2023-04-14T16:10:15.652Z,30.70
2023-04-14T16:12:44.387Z,31.00
2023-04-14T16:15:12.971Z,29.98
2023-04-14T16:17:42.195Z,26.15
2023-04-14T16:20:11.557Z,30.15
2023-04-14T16:22:40.376Z,30.05
2023-04-14T16:25:11.036Z,25.67
2023-04-14T16:27:39.671Z,30.63
2023-04-14T16:30:09.144Z,26.67
2023-04-14T16:32:38.096Z,28.02
2023-04-14T16:35:07.359Z,28.13
2023-04-14T16:37:36.301Z,30.23
2023-04-14T16:40:06.846Z,25.65
2023-04-14T16:42:37.944Z,26.35
2023-04-14T16:45:07.127Z,28.35
2023-04-14T16:47:35.714Z,31.83
2023-04-14T16:50:04.206Z,29.13
2023-04-14T16:52:32.611Z,27.02
2023-04-14T16:55:03.247Z,26.85
2023-04-14T16:57:32.690Z,27.77
2023-04-14T17:00:03.295Z,28.15
2023-04-14T17:02:31.911Z,41.40
2023-04-14T17:05:00.676Z,28.13
2023-04-14T17:07:29.298Z,27.55
2023-04-14T17:09:58.971Z,27.67
2023-04-14T17:12:27.404Z,46.85
2023-04-14T17:14:56.344Z,26.00
2023-04-14T17:17:26.610Z,28.08
2023-04-14T17:19:55.784Z,27.08
2023-04-14T17:22:25.535Z,31.13
2023-04-14T17:24:56.432Z,34.22
2023-04-14T17:27:24.768Z,32.30
2023-04-14T17:29:53.254Z,25.33
2023-04-14T17:32:26.273Z,28.98
2023-04-14T17:34:54.818Z,31.02
2023-04-14T17:37:23.470Z,30.50
2023-04-14T17:39:51.912Z,29.40
2023-04-14T17:42:20.431Z,29.42
2023-04-14T17:44:50.993Z,33.78
2023-04-14T17:47:21.799Z,29.95
2023-04-14T17:49:52.568Z,34.00
2023-04-14T17:52:23.499Z,35.28
2023-04-14T17:54:54.143Z,34.47
2023-04-14T17:57:22.611Z,34.47
2023-04-14T17:59:51.106Z,37.80
2023-04-14T18:02:19.592Z,36.30
2023-04-14T18:04:51.829Z,36.42
2023-04-14T18:07:20.244Z,37.40
2023-04-14T18:09:48.638Z,40.58
2023-04-14T18:12:17.063Z,37.08
2023-04-14T18:14:47.741Z,35.08
2023-04-14T18:17:16.147Z,39.97
2023-04-14T18:19:44.743Z,40.75
2023-04-14T18:22:14.563Z,41.03
2023-04-14T18:29:45.775Z,39.83
2023-04-14T18:32:14.482Z,41.47
2023-04-14T18:34:42.911Z,40.00
2023-04-14T18:37:15.803Z,48.33
2023-04-14T18:39:44.808Z,42.53
2023-04-14T18:42:13.873Z,47.22
2023-04-14T18:44:42.306Z,50.20
2023-04-14T18:47:10.662Z,49.95
2023-04-14T18:49:39.763Z,49.00
2023-04-14T18:52:08.124Z,53.17
2023-04-14T18:54:38.113Z,53.97
2023-04-14T18:57:06.432Z,55.90
2023-04-14T18:59:34.793Z,54.53
2023-04-14T19:02:04.412Z,53.00
2023-04-14T19:04:33.009Z,52.35
2023-04-14T19:07:01.628Z,60.33
2023-04-14T19:09:30.057Z,61.90
2023-04-14T19:11:59.893Z,56.90
2023-04-14T19:14:28.337Z,70.95
2023-04-14T19:16:56.720Z,56.90
2023-04-14T19:19:25.091Z,59.63
2023-04-14T19:21:53.485Z,58.08
2023-04-14T19:24:21.797Z,63.50
2023-04-14T19:26:50.400Z,69.60
2023-04-14T19:29:20.129Z,72.95
2023-04-14T19:31:48.599Z,67.85
2023-04-14T19:34:17.156Z,74.07
2023-04-14T19:36:45.747Z,69.20
2023-04-14T19:39:14.449Z,77.93
2023-04-14T19:41:43.162Z,93.70
2023-04-14T19:44:11.997Z,113.88
2023-04-14T19:46:43.030Z,85.20
2023-04-14T19:49:11.916Z,82.63
2023-04-14T19:51:40.428Z,81.80
2023-04-14T19:54:09.357Z,84.68
2023-04-14T19:56:40.841Z,99.45
2023-04-14T19:59:10.373Z,116.00
2023-04-14T20:01:38.905Z,98.25
2023-04-14T20:04:12.235Z,108.68
2023-04-14T20:06:41.448Z,111.93
2023-04-14T20:09:09.900Z,111.95
2023-04-14T20:11:38.309Z,114.60
2023-04-14T20:14:06.843Z,99.20
2023-04-14T20:16:35.673Z,102.00
2023-04-14T20:19:04.209Z,98.07
2023-04-14T20:21:34.723Z,104.63
2023-04-14T20:24:05.846Z,104.05
2023-04-14T20:26:42.373Z,94.47
2023-04-14T20:29:11.678Z,91.22
2023-04-14T20:31:41.584Z,108.65
2023-04-14T20:34:10.400Z,92.65
2023-04-14T20:36:40.179Z,89.85
2023-04-14T20:39:08.697Z,88.57
2023-04-14T20:41:39.195Z,89.53
2023-04-14T20:44:08.004Z,94.72
2023-04-14T20:46:38.958Z,92.28
2023-04-14T20:49:07.405Z,100.53
2023-04-14T20:51:37.044Z,98.40
2023-04-14T20:54:06.955Z,118.38
2023-04-14T20:56:35.398Z,111.85
2023-04-14T20:59:03.930Z,113.65
2023-04-14T21:01:32.515Z,120.47
2023-04-14T21:04:01.039Z,109.25
2023-04-14T21:06:31.700Z,108.85
2023-04-14T21:09:01.770Z,128.85
2023-04-14T21:11:31.839Z,128.50
2023-04-14T21:15:29.324Z,132.52
2023-04-14T21:16:48.970Z,121.18
2023-04-14T21:19:17.537Z,129.23
2023-04-14T21:21:46.080Z,131.40
2023-04-14T21:24:14.762Z,151.95
2023-04-14T21:26:44.624Z,131.57
2023-04-14T21:29:13.177Z,136.32
2023-04-14T21:31:41.651Z,138.18
2023-04-14T21:34:10.513Z,153.25
2023-04-14T21:36:39.433Z,145.55
2023-04-14T21:39:08.340Z,138.80
2023-04-14T21:41:39.015Z,140.07
2023-04-14T21:44:09.085Z,147.13
2023-04-14T21:46:37.741Z,137.90
2023-04-14T21:49:06.073Z,138.60
2023-04-14T21:51:34.484Z,134.23
2023-04-14T21:54:02.839Z,142.73
2023-04-14T21:56:33.841Z,141.27
2023-04-14T21:59:02.487Z,139.00
2023-04-14T22:01:32.915Z,154.48
2023-04-14T22:04:01.462Z,126.38
2023-04-14T22:06:30.269Z,141.40
2023-04-14T22:08:58.638Z,148.70
2023-04-14T22:11:28.658Z,139.27
2023-04-14T22:13:58.136Z,141.15
2023-04-14T22:16:28.555Z,139.77
2023-04-14T22:18:58.273Z,140.73
2023-04-14T22:21:26.917Z,164.10
2023-04-14T22:23:56.661Z,145.07
2023-04-14T22:26:25.302Z,139.15
2023-04-14T22:28:53.782Z,148.13
2023-04-14T22:31:24.718Z,148.88
2023-04-14T22:33:53.261Z,136.00
2023-04-14T22:36:23.189Z,143.55
2023-04-14T22:38:51.619Z,148.48
2023-04-14T22:41:20.024Z,146.50
2023-04-14T22:43:48.488Z,152.35
2023-04-14T22:46:18.027Z,143.35
2023-04-14T22:48:46.451Z,160.95
2023-04-14T22:51:14.808Z,148.25
2023-04-14T22:53:45.008Z,155.85
2023-04-14T22:56:14.716Z,164.15
2023-04-14T22:58:46.525Z,159.13
2023-04-14T23:01:21.920Z,148.98
2023-04-14T23:03:52.587Z,159.18
2023-04-14T23:06:21.445Z,170.85
2023-04-14T23:08:51.301Z,154.32
2023-04-14T23:11:21.218Z,166.43
2023-04-14T23:13:51.328Z,169.93
2023-04-14T23:16:20.735Z,163.43
2023-04-14T23:18:51.789Z,173.02
2023-04-14T23:21:20.663Z,172.65
2023-04-14T23:23:49.047Z,182.25
2023-04-14T23:26:19.674Z,169.75
2023-04-14T23:28:48.356Z,159.35
2023-04-14T23:31:17.371Z,176.13
2023-04-14T23:33:48.503Z,170.95
2023-04-14T23:36:17.285Z,186.00
2023-04-14T23:38:45.772Z,197.45
2023-04-14T23:41:14.113Z,186.48
2023-04-14T23:43:43.971Z,191.00
2023-04-14T23:46:12.416Z,184.13
2023-04-14T23:48:41.119Z,195.20
2023-04-14T23:51:17.128Z,212.68
2023-04-14T23:53:47.410Z,200.10
2023-04-14T23:56:15.810Z,198.95
2023-04-14T23:58:45.566Z,204.77
